createdAt,value
2022-10-06T00:00:24.761Z,13.84
2022-10-06T00:01:24.826Z,13.88
2022-10-06T00:02:25.071Z,13.88
2022-10-06T00:03:24.734Z,13.89
2022-10-06T00:04:24.716Z,13.88
2022-10-06T00:05:24.738Z,13.89
2022-10-06T00:06:24.734Z,13.91
2022-10-06T00:07:24.714Z,13.92
2022-10-06T00:08:24.966Z,13.92
2022-10-06T00:09:26.989Z,13.94
2022-10-06T00:10:24.712Z,13.95
2022-10-06T00:11:24.710Z,13.95
2022-10-06T00:12:24.616Z,13.95
2022-10-06T00:13:24.639Z,13.96
2022-10-06T00:14:24.653Z,13.98
2022-10-06T00:15:24.605Z,13.98
2022-10-06T00:16:24.872Z,13.98
2022-10-06T00:17:24.631Z,13.98
2022-10-06T00:18:24.727Z,13.98
2022-10-06T00:19:24.583Z,13.96
2022-10-06T00:20:24.530Z,13.98
2022-10-06T00:21:24.552Z,13.98
2022-10-06T00:22:24.531Z,13.99
2022-10-06T00:23:24.851Z,14.01
2022-10-06T00:24:24.540Z,14.02
2022-10-06T00:25:24.504Z,14.01
2022-10-06T00:26:24.465Z,14.01
2022-10-06T00:27:24.469Z,14.01
2022-10-06T00:28:24.463Z,14.02
2022-10-06T00:29:24.484Z,13.99
2022-10-06T00:30:24.724Z,14.01
2022-10-06T00:31:24.524Z,14.01
2022-10-06T00:32:24.416Z,14.01
2022-10-06T00:33:24.412Z,13.99
2022-10-06T00:34:24.394Z,14.02
2022-10-06T00:35:24.402Z,14.04
2022-10-06T00:36:24.356Z,14.04
2022-10-06T00:37:24.649Z,14.06
2022-10-06T00:38:24.351Z,14.04
2022-10-06T00:39:24.368Z,14.06
2022-10-06T00:40:24.366Z,14.02
2022-10-06T00:41:24.349Z,14.04
2022-10-06T00:42:24.307Z,14.04
2022-10-06T00:43:24.289Z,14.02
2022-10-06T00:44:24.579Z,14.04
2022-10-06T00:45:24.261Z,14.04
2022-10-06T00:46:24.387Z,14.02
2022-10-06T00:47:24.294Z,14.02
2022-10-06T00:48:24.229Z,13.99
2022-10-06T00:49:24.218Z,13.99
2022-10-06T00:50:24.213Z,13.99
2022-10-06T00:51:24.482Z,13.99
2022-10-06T00:52:24.186Z,13.96
2022-10-06T00:53:24.219Z,13.95
2022-10-06T00:54:24.161Z,13.94
2022-10-06T00:55:24.186Z,13.91
2022-10-06T00:56:24.167Z,13.91
2022-10-06T00:57:24.140Z,13.88
2022-10-06T00:58:24.555Z,13.88
2022-10-06T00:59:25.334Z,13.84
2022-10-06T01:00:24.110Z,13.84
2022-10-06T01:01:24.160Z,13.81
2022-10-06T01:02:24.127Z,13.81
2022-10-06T01:03:24.073Z,13.80
2022-10-06T01:04:24.064Z,13.79
2022-10-06T01:05:24.376Z,13.77
2022-10-06T01:06:24.057Z,13.77
2022-10-06T01:07:24.046Z,13.74
2022-10-06T01:08:24.051Z,13.73
2022-10-06T01:09:24.017Z,13.71
2022-10-06T01:10:23.991Z,13.70
2022-10-06T01:11:24.020Z,13.69
2022-10-06T01:12:24.249Z,13.65
2022-10-06T01:13:23.966Z,13.65
2022-10-06T01:14:23.953Z,13.63
2022-10-06T01:15:23.950Z,13.61
2022-10-06T01:16:24.040Z,13.62
2022-10-06T01:17:23.951Z,13.62
2022-10-06T01:18:23.913Z,13.59
2022-10-06T01:19:24.192Z,13.59
2022-10-06T01:20:23.890Z,13.56
2022-10-06T01:21:23.901Z,13.55
2022-10-06T01:22:23.932Z,13.54
2022-10-06T01:23:23.899Z,13.52
2022-10-06T01:24:23.858Z,13.51
2022-10-06T01:25:23.841Z,13.49
2022-10-06T01:26:24.153Z,13.51
2022-10-06T01:27:23.812Z,13.51
2022-10-06T01:28:23.856Z,13.54
2022-10-06T01:29:23.816Z,13.54
2022-10-06T01:30:23.792Z,13.54
2022-10-06T01:31:23.842Z,13.54
2022-10-06T01:32:23.769Z,13.49
2022-10-06T01:33:24.117Z,13.51
2022-10-06T01:34:23.794Z,13.49
2022-10-06T01:35:23.758Z,13.49
2022-10-06T01:36:23.718Z,13.46
2022-10-06T01:37:23.708Z,13.46
2022-10-06T01:38:23.703Z,13.43
2022-10-06T01:39:23.690Z,13.43
2022-10-06T01:40:23.993Z,13.43
2022-10-06T01:41:23.718Z,13.41
2022-10-06T01:42:23.663Z,13.40
2022-10-06T01:43:23.645Z,13.38
2022-10-06T01:44:23.634Z,13.38
2022-10-06T01:45:23.626Z,13.37
2022-10-06T01:46:23.754Z,13.37
2022-10-06T01:47:23.921Z,13.36
2022-10-06T01:48:23.594Z,13.37
2022-10-06T01:49:23.601Z,13.37
2022-10-06T01:50:23.601Z,13.37
2022-10-06T01:51:23.559Z,13.40
2022-10-06T01:52:23.546Z,13.40
2022-10-06T01:53:23.582Z,13.40
2022-10-06T01:54:23.814Z,13.41
2022-10-06T01:55:23.520Z,13.40
2022-10-06T01:56:23.514Z,13.38
2022-10-06T01:57:23.526Z,13.41
2022-10-06T01:58:23.479Z,13.40
2022-10-06T01:59:23.517Z,13.41
2022-10-06T02:00:23.460Z,13.41
2022-10-06T02:01:23.550Z,13.38
2022-10-06T02:02:23.442Z,13.37
2022-10-06T02:03:23.429Z,13.37
2022-10-06T02:04:23.506Z,13.33
2022-10-06T02:05:24.384Z,13.33
2022-10-06T02:06:23.511Z,13.36
2022-10-06T02:07:23.701Z,13.33
2022-10-06T02:08:23.385Z,13.36
2022-10-06T02:09:23.359Z,13.33
2022-10-06T02:10:23.362Z,13.33
2022-10-06T02:11:23.376Z,13.37
2022-10-06T02:12:23.336Z,13.36
2022-10-06T02:13:23.324Z,13.33
2022-10-06T02:14:23.307Z,13.30
2022-10-06T02:15:23.292Z,13.30
2022-10-06T02:16:23.354Z,13.29
2022-10-06T02:17:23.315Z,13.27
2022-10-06T02:18:23.270Z,13.27
2022-10-06T02:19:23.556Z,13.25
2022-10-06T02:20:23.263Z,13.25
2022-10-06T02:21:23.258Z,13.22
2022-10-06T02:22:23.231Z,13.24
2022-10-06T02:23:23.252Z,13.21
2022-10-06T02:24:23.207Z,13.22
2022-10-06T02:25:23.208Z,13.22
2022-10-06T02:26:23.460Z,13.18
2022-10-06T02:27:23.165Z,13.21
2022-10-06T02:28:23.227Z,13.21
2022-10-06T02:29:23.191Z,13.24
2022-10-06T02:30:23.158Z,13.22
2022-10-06T02:31:23.257Z,13.24
2022-10-06T02:32:23.114Z,13.22
2022-10-06T02:33:23.384Z,13.20
2022-10-06T02:34:23.109Z,13.20
2022-10-06T02:35:23.116Z,13.20
2022-10-06T02:36:23.088Z,13.21
2022-10-06T02:37:23.080Z,13.20
2022-10-06T02:38:23.087Z,13.18
2022-10-06T02:39:23.040Z,13.15
2022-10-06T02:40:23.038Z,13.14
2022-10-06T02:41:23.061Z,13.09
2022-10-06T02:42:23.319Z,13.07
2022-10-06T02:43:22.997Z,13.07
2022-10-06T02:44:23.015Z,13.07
2022-10-06T02:45:22.977Z,13.04
2022-10-06T02:46:23.045Z,13.06
2022-10-06T02:47:23.012Z,13.03
2022-10-06T02:48:22.976Z,13.04
2022-10-06T02:49:22.937Z,13.02
2022-10-06T02:50:22.935Z,13.00
2022-10-06T02:51:22.972Z,12.99
2022-10-06T02:52:22.901Z,13.00
2022-10-06T02:53:22.961Z,12.99
2022-10-06T02:54:22.912Z,12.97
2022-10-06T02:55:22.901Z,12.96
2022-10-06T02:56:22.907Z,12.93
2022-10-06T02:57:22.861Z,12.93
2022-10-06T02:58:22.850Z,12.92
2022-10-06T02:59:22.851Z,12.89
2022-10-06T03:00:23.117Z,12.89
2022-10-06T03:01:22.880Z,12.89
2022-10-06T03:02:22.969Z,12.88
2022-10-06T03:03:22.805Z,12.89
2022-10-06T03:04:22.782Z,12.87
2022-10-06T03:05:22.814Z,12.88
2022-10-06T03:06:22.771Z,12.87
2022-10-06T03:07:23.057Z,12.87
2022-10-06T03:08:22.736Z,12.87
2022-10-06T03:09:22.725Z,12.85
2022-10-06T03:10:22.731Z,12.84
2022-10-06T03:11:23.033Z,12.87
2022-10-06T03:12:22.689Z,12.85
2022-10-06T03:13:22.686Z,12.84
2022-10-06T03:14:22.975Z,12.85
2022-10-06T03:15:22.660Z,12.84
2022-10-06T03:16:22.820Z,12.85
2022-10-06T03:17:22.679Z,12.85
2022-10-06T03:18:22.632Z,12.87
2022-10-06T03:19:22.622Z,12.85
2022-10-06T03:20:22.621Z,12.87
2022-10-06T03:21:22.867Z,12.84
2022-10-06T03:22:22.612Z,12.85
2022-10-06T03:23:22.598Z,12.84
2022-10-06T03:24:22.567Z,12.82
2022-10-06T03:25:22.557Z,12.82
2022-10-06T03:26:22.563Z,12.81
2022-10-06T03:27:22.541Z,12.79
2022-10-06T03:28:22.930Z,12.79
2022-10-06T03:29:22.556Z,12.78
2022-10-06T03:30:22.522Z,12.79
2022-10-06T03:31:22.557Z,12.79
2022-10-06T03:32:22.481Z,12.82
2022-10-06T03:33:22.487Z,12.82
2022-10-06T03:34:22.501Z,12.82
2022-10-06T03:35:22.775Z,12.82
2022-10-06T03:36:22.437Z,12.79
2022-10-06T03:37:22.569Z,12.79
2022-10-06T03:38:22.438Z,12.82
2022-10-06T03:39:22.404Z,12.84
2022-10-06T03:40:22.401Z,12.82
2022-10-06T03:41:22.428Z,12.82
2022-10-06T03:42:22.666Z,12.84
2022-10-06T03:43:22.389Z,12.84
2022-10-06T03:44:22.381Z,12.84
2022-10-06T03:45:22.333Z,12.81
2022-10-06T03:46:22.401Z,12.82
2022-10-06T03:47:22.340Z,12.81
2022-10-06T03:48:22.306Z,12.82
2022-10-06T03:49:22.303Z,12.78
2022-10-06T03:50:22.286Z,12.79
2022-10-06T03:51:22.269Z,12.78
2022-10-06T03:52:25.918Z,12.78
2022-10-06T03:53:22.284Z,12.82
2022-10-06T03:54:22.255Z,12.82
2022-10-06T03:55:22.512Z,12.82
2022-10-06T03:56:22.227Z,12.81
2022-10-06T03:57:22.211Z,12.81
2022-10-06T03:58:22.211Z,12.82
2022-10-06T03:59:22.219Z,12.79
2022-10-06T04:00:22.194Z,12.79
2022-10-06T04:01:25.970Z,12.78
2022-10-06T04:02:22.569Z,12.79
2022-10-06T04:03:22.163Z,12.81
2022-10-06T04:04:22.146Z,12.79
2022-10-06T04:05:22.150Z,12.79
2022-10-06T04:06:22.137Z,12.79
2022-10-06T04:07:22.103Z,12.77
2022-10-06T04:08:22.097Z,12.75
2022-10-06T04:09:22.370Z,12.74
2022-10-06T04:10:22.073Z,12.75
2022-10-06T04:11:22.083Z,12.74
2022-10-06T04:12:22.050Z,12.71
2022-10-06T04:13:22.044Z,12.70
2022-10-06T04:14:22.042Z,12.70
2022-10-06T04:15:22.008Z,12.70
2022-10-06T04:16:22.410Z,12.69
2022-10-06T04:17:22.084Z,12.66
2022-10-06T04:18:22.002Z,12.64
2022-10-06T04:19:21.986Z,12.64
2022-10-06T04:20:21.972Z,12.63
2022-10-06T04:21:21.952Z,12.62
2022-10-06T04:22:21.983Z,12.59
2022-10-06T04:23:22.289Z,12.56
2022-10-06T04:24:21.939Z,12.57
2022-10-06T04:25:21.913Z,12.56
2022-10-06T04:26:21.935Z,12.54
2022-10-06T04:27:21.898Z,12.54
2022-10-06T04:28:21.963Z,12.56
2022-10-06T04:29:21.906Z,12.54
2022-10-06T04:30:22.159Z,12.56
2022-10-06T04:31:21.874Z,12.56
2022-10-06T04:32:21.838Z,12.56
2022-10-06T04:33:21.847Z,12.52
2022-10-06T04:34:21.820Z,12.51
2022-10-06T04:35:21.822Z,12.51
2022-10-06T04:36:21.802Z,12.48
2022-10-06T04:37:22.087Z,12.48
2022-10-06T04:38:21.773Z,12.48
2022-10-06T04:39:21.794Z,12.45
2022-10-06T04:40:21.766Z,12.46
2022-10-06T04:41:21.794Z,12.48
2022-10-06T04:42:21.756Z,12.48
2022-10-06T04:43:21.732Z,12.48
2022-10-06T04:44:21.995Z,12.48
2022-10-06T04:45:21.716Z,12.49
2022-10-06T04:46:42.066Z,12.49
2022-10-06T04:47:21.733Z,12.48
2022-10-06T04:48:21.676Z,12.49
2022-10-06T04:49:21.688Z,12.48
2022-10-06T04:50:21.659Z,12.46
2022-10-06T04:51:21.932Z,12.45
2022-10-06T04:52:21.633Z,12.44
2022-10-06T04:53:21.665Z,12.44
2022-10-06T04:54:21.613Z,12.44
2022-10-06T04:55:21.590Z,12.41
2022-10-06T04:56:21.604Z,12.39
2022-10-06T04:57:21.569Z,12.38
2022-10-06T04:58:21.574Z,12.38
2022-10-06T04:59:21.569Z,12.34
2022-10-06T05:00:21.557Z,12.34
2022-10-06T05:01:21.696Z,12.30
2022-10-06T05:02:21.577Z,12.30
2022-10-06T05:03:21.514Z,12.30
2022-10-06T05:04:21.793Z,12.30
2022-10-06T05:05:21.519Z,12.29
2022-10-06T05:06:21.492Z,12.29
2022-10-06T05:07:21.454Z,12.27
2022-10-06T05:08:21.464Z,12.26
2022-10-06T05:09:21.444Z,12.26
2022-10-06T05:10:21.452Z,12.29
2022-10-06T05:11:25.684Z,12.29
2022-10-06T05:12:21.415Z,12.26
2022-10-06T05:13:21.422Z,12.26
2022-10-06T05:14:21.398Z,12.27
2022-10-06T05:15:21.392Z,12.27
2022-10-06T05:16:21.696Z,12.29
2022-10-06T05:17:21.394Z,12.27
2022-10-06T05:18:21.393Z,12.27
2022-10-06T05:19:21.338Z,12.26
2022-10-06T05:20:21.327Z,12.24
2022-10-06T05:21:21.311Z,12.24
2022-10-06T05:22:21.312Z,12.23
2022-10-06T05:23:21.358Z,12.23
2022-10-06T05:24:21.314Z,12.23
2022-10-06T05:25:21.291Z,12.24
2022-10-06T05:26:21.300Z,12.21
2022-10-06T05:27:21.264Z,12.23
2022-10-06T05:28:21.591Z,12.21
2022-10-06T05:29:21.252Z,12.23
2022-10-06T05:30:21.245Z,12.19
2022-10-06T05:31:21.268Z,12.20
2022-10-06T05:32:21.218Z,12.20
2022-10-06T05:33:21.194Z,12.21
2022-10-06T05:34:21.203Z,12.21
2022-10-06T05:35:21.506Z,12.19
2022-10-06T05:36:21.184Z,12.16
2022-10-06T05:37:21.163Z,12.16
2022-10-06T05:38:21.153Z,12.19
2022-10-06T05:39:21.144Z,12.16
2022-10-06T05:40:21.132Z,12.19
2022-10-06T05:41:21.157Z,12.19
2022-10-06T05:42:21.125Z,12.19
2022-10-06T05:43:21.076Z,12.20
2022-10-06T05:44:21.095Z,12.20
2022-10-06T05:45:21.080Z,12.21
2022-10-06T05:46:21.146Z,12.19
2022-10-06T05:47:21.074Z,12.20
2022-10-06T05:48:21.335Z,12.19
2022-10-06T05:49:21.031Z,12.19
2022-10-06T05:50:21.021Z,12.20
2022-10-06T05:51:21.007Z,12.20
2022-10-06T05:52:20.995Z,12.21
2022-10-06T05:53:21.011Z,12.20
2022-10-06T05:54:20.964Z,12.20
2022-10-06T05:55:21.241Z,12.23
2022-10-06T05:56:20.938Z,12.23
2022-10-06T05:57:20.953Z,12.21
2022-10-06T05:58:20.919Z,12.19
2022-10-06T05:59:20.963Z,12.19
2022-10-06T06:00:20.914Z,12.19
2022-10-06T06:01:20.954Z,12.16
2022-10-06T06:02:21.195Z,12.19
2022-10-06T06:03:20.899Z,12.16
2022-10-06T06:04:20.878Z,12.19
2022-10-06T06:05:20.920Z,12.16
2022-10-06T06:06:20.833Z,12.19
2022-10-06T06:07:20.850Z,12.16
2022-10-06T06:08:20.850Z,12.19
2022-10-06T06:09:21.115Z,12.16
2022-10-06T06:10:20.813Z,12.16
2022-10-06T06:11:20.850Z,12.15
2022-10-06T06:12:20.773Z,12.19
2022-10-06T06:13:20.780Z,12.20
2022-10-06T06:14:20.763Z,12.20
2022-10-06T06:15:20.756Z,12.23
2022-10-06T06:16:22.069Z,12.23
2022-10-06T06:17:20.767Z,12.23
2022-10-06T06:18:20.734Z,12.24
2022-10-06T06:19:20.707Z,12.27
2022-10-06T06:20:20.752Z,12.26
2022-10-06T06:21:20.739Z,12.29
2022-10-06T06:22:20.671Z,12.33
2022-10-06T06:23:21.090Z,12.31
2022-10-06T06:24:20.653Z,12.34
2022-10-06T06:25:20.652Z,12.37
2022-10-06T06:26:20.669Z,12.39
2022-10-06T06:27:21.302Z,12.39
2022-10-06T06:28:20.732Z,12.41
2022-10-06T06:29:20.636Z,12.42
2022-10-06T06:30:20.897Z,12.44
2022-10-06T06:31:20.772Z,12.45
2022-10-06T06:32:20.585Z,12.49
2022-10-06T06:33:20.563Z,12.51
2022-10-06T06:34:20.557Z,12.54
2022-10-06T06:35:20.585Z,12.59
2022-10-06T06:36:20.556Z,12.60
2022-10-06T06:37:20.842Z,12.63
2022-10-06T06:38:20.528Z,12.70
2022-10-06T06:39:20.515Z,12.74
2022-10-06T06:40:20.500Z,12.78
2022-10-06T06:41:20.608Z,12.84
2022-10-06T06:42:20.499Z,12.89
2022-10-06T06:43:20.464Z,12.88
2022-10-06T06:44:20.738Z,12.93
2022-10-06T06:45:20.443Z,12.95
2022-10-06T06:46:20.583Z,12.96
2022-10-06T06:47:21.962Z,12.99
2022-10-06T06:48:20.421Z,13.07
2022-10-06T06:49:20.444Z,13.14
2022-10-06T06:50:20.417Z,13.15
2022-10-06T06:51:20.657Z,13.18
2022-10-06T06:52:20.424Z,13.21
2022-10-06T06:53:20.425Z,13.21
2022-10-06T06:54:20.369Z,13.24
2022-10-06T06:55:20.329Z,13.22
2022-10-06T06:56:20.372Z,13.25
2022-10-06T06:57:20.337Z,13.29
2022-10-06T06:58:20.590Z,13.30
2022-10-06T06:59:20.351Z,13.33
2022-10-06T07:00:20.350Z,13.43
2022-10-06T07:01:20.325Z,13.52
2022-10-06T07:02:20.376Z,13.56
2022-10-06T07:03:38.432Z,13.62
2022-10-06T07:04:20.267Z,13.69
2022-10-06T07:05:20.689Z,13.67
2022-10-06T07:06:21.816Z,13.73
2022-10-06T07:07:20.230Z,13.77
2022-10-06T07:08:20.194Z,13.84
2022-10-06T07:09:20.237Z,13.87
2022-10-06T07:10:20.197Z,13.88
2022-10-06T07:11:20.215Z,13.81
2022-10-06T07:12:20.478Z,13.80
2022-10-06T07:13:20.164Z,13.80
2022-10-06T07:14:20.161Z,13.81
2022-10-06T07:15:20.155Z,13.84
2022-10-06T07:16:20.229Z,13.92
2022-10-06T07:17:20.197Z,14.02
2022-10-06T07:18:20.134Z,14.04
2022-10-06T07:19:24.655Z,14.09
2022-10-06T07:20:20.138Z,14.10
2022-10-06T07:21:20.103Z,14.16
2022-10-06T07:22:20.051Z,14.28
2022-10-06T07:23:20.134Z,14.34
2022-10-06T07:24:20.032Z,14.42
2022-10-06T07:25:25.074Z,14.44
2022-10-06T07:26:20.026Z,14.49
2022-10-06T07:27:20.000Z,14.54
2022-10-06T07:28:20.122Z,14.53
2022-10-06T07:29:20.034Z,14.56
2022-10-06T07:30:19.981Z,14.54
2022-10-06T07:31:20.007Z,14.57
2022-10-06T07:32:20.292Z,14.62
2022-10-06T07:33:19.935Z,14.69
2022-10-06T07:34:19.989Z,14.69
2022-10-06T07:35:20.006Z,14.68
2022-10-06T07:36:19.912Z,14.69
2022-10-06T07:37:19.889Z,14.72
2022-10-06T07:38:19.889Z,14.68
2022-10-06T07:39:19.886Z,14.69
2022-10-06T07:40:19.945Z,14.81
2022-10-06T07:41:20.636Z,14.90
2022-10-06T07:42:19.926Z,14.90
2022-10-06T07:43:19.860Z,14.81
2022-10-06T07:44:20.108Z,14.87
2022-10-06T07:45:19.899Z,14.99
2022-10-06T07:46:19.886Z,15.09
2022-10-06T07:47:19.946Z,15.15
2022-10-06T07:48:19.841Z,15.12
2022-10-06T07:49:19.800Z,15.12
2022-10-06T07:50:19.995Z,15.13
2022-10-06T07:51:19.760Z,15.19
2022-10-06T07:52:19.826Z,15.11
2022-10-06T07:53:19.837Z,15.05
2022-10-06T07:54:22.843Z,15.13
2022-10-06T07:55:19.761Z,15.41
2022-10-06T07:56:20.023Z,15.56
2022-10-06T07:57:19.711Z,15.61
2022-10-06T07:58:19.663Z,15.76
2022-10-06T07:59:19.785Z,15.76
2022-10-06T08:00:19.800Z,15.82
2022-10-06T08:01:19.798Z,15.76
2022-10-06T08:02:19.803Z,15.64
2022-10-06T08:03:20.160Z,15.61
2022-10-06T08:04:19.720Z,15.60
2022-10-06T08:05:19.722Z,15.67
2022-10-06T08:06:19.628Z,15.74
2022-10-06T08:07:19.621Z,15.66
2022-10-06T08:08:19.663Z,15.61
2022-10-06T08:09:19.683Z,15.57
2022-10-06T08:10:19.874Z,15.52
2022-10-06T08:11:19.625Z,15.60
2022-10-06T08:12:19.562Z,15.68
2022-10-06T08:13:19.551Z,15.68
2022-10-06T08:14:19.594Z,15.74
2022-10-06T08:15:19.596Z,15.70
2022-10-06T08:16:19.722Z,15.68
2022-10-06T08:17:19.854Z,15.68
2022-10-06T08:18:40.973Z,15.72
2022-10-06T08:19:19.494Z,15.78
2022-10-06T08:20:19.485Z,15.85
2022-10-06T08:21:19.415Z,15.74
2022-10-06T08:22:19.558Z,15.68
2022-10-06T08:23:19.514Z,15.70
2022-10-06T08:24:19.767Z,15.85
2022-10-06T08:25:19.463Z,16.04
2022-10-06T08:26:19.413Z,16.12
2022-10-06T08:27:19.388Z,16.16
2022-10-06T08:28:19.471Z,16.20
2022-10-06T08:29:19.444Z,16.33
2022-10-06T08:30:19.359Z,16.45
2022-10-06T08:31:19.845Z,16.40
2022-10-06T08:32:19.372Z,16.18
2022-10-06T08:33:21.401Z,16.15
2022-10-06T08:34:19.423Z,16.23
2022-10-06T08:35:19.510Z,16.22
2022-10-06T08:36:19.345Z,16.22
2022-10-06T08:37:20.428Z,16.14
2022-10-06T08:38:19.556Z,16.30
2022-10-06T08:39:19.267Z,16.35
2022-10-06T08:40:19.280Z,16.37
2022-10-06T08:41:19.261Z,16.44
2022-10-06T08:42:19.272Z,16.42
2022-10-06T08:43:19.226Z,16.38
2022-10-06T08:44:19.239Z,16.40
2022-10-06T08:45:19.536Z,16.37
2022-10-06T08:46:21.115Z,16.45
2022-10-06T08:47:19.429Z,16.56
2022-10-06T08:48:19.260Z,16.59
2022-10-06T08:49:19.257Z,16.63
2022-10-06T08:50:19.152Z,16.68
2022-10-06T08:51:19.185Z,16.62
2022-10-06T08:52:19.129Z,16.52
2022-10-06T08:53:19.155Z,16.50
2022-10-06T08:54:19.136Z,16.62
2022-10-06T08:55:19.100Z,16.71
2022-10-06T08:56:19.096Z,16.74
2022-10-06T08:57:19.080Z,16.74
2022-10-06T08:58:19.364Z,16.68
2022-10-06T08:59:19.135Z,16.65
2022-10-06T09:00:21.267Z,16.74
2022-10-06T09:01:19.183Z,16.74
2022-10-06T09:02:19.117Z,16.62
2022-10-06T09:03:19.058Z,16.62
2022-10-06T09:04:19.042Z,16.58
2022-10-06T09:05:19.433Z,16.59
2022-10-06T09:06:18.991Z,16.63
2022-10-06T09:07:19.005Z,16.70
2022-10-06T09:08:19.027Z,16.75
2022-10-06T09:09:19.010Z,16.80
2022-10-06T09:10:19.053Z,16.85
2022-10-06T09:11:18.978Z,16.90
2022-10-06T09:12:19.190Z,16.99
2022-10-06T09:13:21.881Z,17.06
2022-10-06T09:14:18.931Z,17.14
2022-10-06T09:15:18.940Z,17.11
2022-10-06T09:16:18.996Z,17.25
2022-10-06T09:17:19.050Z,17.44
2022-10-06T09:18:18.869Z,17.63
2022-10-06T09:19:19.203Z,17.87
2022-10-06T09:20:18.913Z,17.94
2022-10-06T09:21:18.932Z,18.06
2022-10-06T09:22:18.838Z,18.18
2022-10-06T09:23:18.984Z,18.12
2022-10-06T09:24:18.892Z,18.28
2022-10-06T09:25:18.892Z,18.47
2022-10-06T09:26:19.106Z,18.40
2022-10-06T09:27:18.750Z,18.15
2022-10-06T09:28:18.831Z,18.00
2022-10-06T09:29:18.806Z,17.99
2022-10-06T09:30:18.811Z,17.89
2022-10-06T09:31:18.816Z,17.89
2022-10-06T09:32:18.757Z,17.99
2022-10-06T09:33:18.987Z,18.12
2022-10-06T09:34:18.691Z,18.18
2022-10-06T09:35:18.815Z,18.28
2022-10-06T09:36:18.670Z,18.52
2022-10-06T09:37:18.682Z,18.82
2022-10-06T09:38:18.705Z,18.87
2022-10-06T09:39:18.671Z,18.97
2022-10-06T09:40:18.980Z,19.10
2022-10-06T09:41:18.699Z,18.97
2022-10-06T09:42:18.672Z,18.90
2022-10-06T09:43:18.608Z,18.92
2022-10-06T09:44:18.608Z,18.65
2022-10-06T09:45:18.591Z,18.67
2022-10-06T09:46:18.641Z,18.62
2022-10-06T09:47:18.941Z,18.43
2022-10-06T09:48:20.962Z,18.28
2022-10-06T09:49:18.627Z,17.95
2022-10-06T09:50:18.651Z,18.03
2022-10-06T09:51:18.600Z,18.27
2022-10-06T09:52:18.526Z,18.44
2022-10-06T09:53:18.675Z,18.54
2022-10-06T09:54:18.781Z,18.62
2022-10-06T09:55:18.542Z,18.65
2022-10-06T09:56:18.466Z,18.64
2022-10-06T09:57:18.525Z,18.68
2022-10-06T09:58:18.521Z,18.74
2022-10-06T09:59:18.516Z,18.87
2022-10-06T10:00:18.511Z,18.95
2022-10-06T10:01:18.505Z,19.08
2022-10-06T10:02:18.453Z,19.28
2022-10-06T10:03:18.550Z,19.65
2022-10-06T10:04:21.436Z,19.76
2022-10-06T10:05:18.521Z,19.97
2022-10-06T10:06:18.678Z,20.00
2022-10-06T10:07:18.404Z,19.76
2022-10-06T10:08:18.367Z,19.42
2022-10-06T10:09:20.700Z,19.29
2022-10-06T10:10:18.376Z,19.21
2022-10-06T10:11:18.388Z,19.21
2022-10-06T10:12:18.365Z,19.33
2022-10-06T10:13:18.343Z,19.46
2022-10-06T10:14:18.299Z,19.42
2022-10-06T10:15:18.307Z,19.28
2022-10-06T10:16:18.406Z,18.90
2022-10-06T10:17:18.321Z,18.77
2022-10-06T10:18:19.630Z,18.86
2022-10-06T10:19:18.247Z,18.58
2022-10-06T10:20:18.247Z,18.80
2022-10-06T10:21:18.288Z,19.08
2022-10-06T10:22:18.289Z,19.23
2022-10-06T10:23:18.226Z,19.73
2022-10-06T10:24:18.251Z,20.03
2022-10-06T10:25:18.526Z,19.73
2022-10-06T10:26:18.297Z,19.48
2022-10-06T10:27:18.228Z,19.31
2022-10-06T10:28:18.224Z,19.10
2022-10-06T10:29:18.167Z,19.18
2022-10-06T10:30:18.731Z,19.39
2022-10-06T10:31:18.292Z,19.43
2022-10-06T10:32:18.412Z,19.60
2022-10-06T10:33:18.241Z,19.91
2022-10-06T10:34:24.469Z,20.13
2022-10-06T10:35:18.184Z,20.20
2022-10-06T10:36:18.128Z,20.06
2022-10-06T10:37:18.146Z,20.09
2022-10-06T10:38:18.124Z,20.34
2022-10-06T10:39:18.414Z,20.18
2022-10-06T10:40:18.060Z,20.00
2022-10-06T10:41:18.212Z,19.95
2022-10-06T10:42:18.072Z,19.88
2022-10-06T10:43:18.090Z,20.05
2022-10-06T10:44:18.007Z,20.21
2022-10-06T10:45:18.845Z,20.49
2022-10-06T10:46:19.370Z,20.27
2022-10-06T10:47:18.069Z,19.57
2022-10-06T10:48:18.049Z,19.11
2022-10-06T10:49:18.080Z,18.91
2022-10-06T10:50:17.979Z,19.05
2022-10-06T10:51:17.987Z,19.32
2022-10-06T10:52:17.906Z,19.48
2022-10-06T10:54:17.948Z,19.60
2022-10-06T10:55:17.956Z,19.90
2022-10-06T10:56:17.935Z,20.25
2022-10-06T10:57:17.913Z,20.39
2022-10-06T10:58:17.982Z,20.42
2022-10-06T10:59:17.966Z,20.46
2022-10-06T11:00:18.145Z,20.30
2022-10-06T11:01:17.892Z,20.49
2022-10-06T11:02:17.913Z,20.34
2022-10-06T11:03:17.876Z,20.00
2022-10-06T11:04:17.845Z,20.05
2022-10-06T11:05:17.814Z,20.27
2022-10-06T11:06:17.801Z,19.91
2022-10-06T11:07:18.032Z,19.78
2022-10-06T11:08:17.847Z,19.72
2022-10-06T11:09:17.787Z,19.94
2022-10-06T11:10:17.714Z,20.27
2022-10-06T11:11:17.859Z,20.58
2022-10-06T11:12:17.783Z,20.83
2022-10-06T11:13:17.748Z,21.29
2022-10-06T11:14:17.982Z,21.66
2022-10-06T11:15:17.727Z,21.69
2022-10-06T11:16:17.713Z,21.94
2022-10-06T11:17:17.755Z,22.14
2022-10-06T11:18:21.376Z,22.52
2022-10-06T11:19:17.627Z,22.75
2022-10-06T11:20:17.662Z,22.90
2022-10-06T11:21:17.578Z,22.94
2022-10-06T11:22:17.645Z,22.80
2022-10-06T11:23:17.752Z,22.67
2022-10-06T11:24:17.587Z,22.31
2022-10-06T11:25:17.626Z,22.12
2022-10-06T11:26:17.599Z,22.10
2022-10-06T11:27:17.858Z,22.28
2022-10-06T11:28:17.705Z,22.27
2022-10-06T11:29:17.654Z,22.35
2022-10-06T11:30:17.494Z,22.39
2022-10-06T11:31:21.947Z,22.10
2022-10-06T11:32:17.543Z,21.53
2022-10-06T11:33:17.517Z,21.30
2022-10-06T11:34:17.741Z,20.68
2022-10-06T11:35:17.625Z,20.51
2022-10-06T11:36:17.483Z,20.46
2022-10-06T11:37:17.502Z,20.27
2022-10-06T11:38:17.516Z,20.43
2022-10-06T11:39:17.472Z,20.38
2022-10-06T11:40:17.471Z,20.59
2022-10-06T11:41:17.834Z,20.59
2022-10-06T11:42:17.620Z,20.18
2022-10-06T11:43:17.354Z,20.13
2022-10-06T11:44:17.347Z,20.28
2022-10-06T11:45:17.372Z,20.42
2022-10-06T11:46:17.662Z,20.54
2022-10-06T11:47:17.672Z,20.54
2022-10-06T11:48:17.728Z,21.09
2022-10-06T11:49:17.345Z,21.34
2022-10-06T11:50:17.333Z,21.45
2022-10-06T11:51:17.280Z,21.44
2022-10-06T11:52:17.309Z,21.42
2022-10-06T11:53:17.328Z,21.39
2022-10-06T11:54:17.260Z,21.54
2022-10-06T11:55:17.583Z,21.30
2022-10-06T11:56:17.360Z,21.32
2022-10-06T11:57:17.348Z,21.44
2022-10-06T11:58:41.333Z,21.26
2022-10-06T11:59:17.255Z,20.86
2022-10-06T12:00:17.599Z,20.58
2022-10-06T12:01:17.244Z,20.39
2022-10-06T12:02:17.486Z,20.13
2022-10-06T12:03:17.307Z,20.34
2022-10-06T12:04:20.730Z,20.42
2022-10-06T12:05:49.625Z,20.68
2022-10-06T12:06:17.202Z,20.74
2022-10-06T12:07:17.195Z,20.42
2022-10-06T12:08:17.515Z,20.16
2022-10-06T12:09:17.271Z,19.95
2022-10-06T12:10:17.137Z,20.06
2022-10-06T12:11:17.223Z,20.28
2022-10-06T12:12:17.097Z,20.16
2022-10-06T12:14:00.128Z,20.42
2022-10-06T12:17:08.842Z,19.93
2022-10-06T12:17:19.339Z,20.27
2022-10-06T12:17:24.696Z,20.72
2022-10-06T12:18:24.871Z,20.90
2022-10-06T12:19:25.063Z,21.02
2022-10-06T12:20:24.684Z,21.09
2022-10-06T12:21:24.758Z,21.06
2022-10-06T12:22:24.680Z,21.26
2022-10-06T12:23:24.690Z,21.66
2022-10-06T12:24:24.670Z,21.91
2022-10-06T12:25:24.671Z,22.13
2022-10-06T12:26:24.650Z,22.29
2022-10-06T12:27:25.961Z,22.22
2022-10-06T12:28:24.685Z,21.69
2022-10-06T12:29:24.586Z,21.30
2022-10-06T12:30:24.622Z,20.95
2022-10-06T12:31:25.070Z,20.79
2022-10-06T12:32:24.654Z,20.43
2022-10-06T12:33:24.583Z,20.12
2022-10-06T12:34:24.632Z,20.10
2022-10-06T12:35:24.583Z,20.05
2022-10-06T12:36:24.571Z,20.56
2022-10-06T12:37:24.520Z,20.95
2022-10-06T12:38:24.851Z,21.08
2022-10-06T12:39:24.461Z,21.08
2022-10-06T12:40:24.543Z,21.21
2022-10-06T12:41:24.494Z,21.46
2022-10-06T12:42:24.502Z,21.79
2022-10-06T12:43:24.611Z,22.13
2022-10-06T12:44:24.438Z,22.47
2022-10-06T12:45:24.923Z,22.64
2022-10-06T12:46:24.600Z,22.64
2022-10-06T12:47:24.469Z,22.31
2022-10-06T12:48:24.478Z,21.83
2022-10-06T12:49:24.416Z,21.44
2022-10-06T12:50:24.451Z,21.19
2022-10-06T12:51:24.696Z,21.13
2022-10-06T12:52:25.059Z,21.17
2022-10-06T12:53:24.491Z,20.93
2022-10-06T12:54:24.396Z,21.08